createdAt,value
2023-03-13T00:01:39.930Z,28.87
2023-03-13T00:04:07.192Z,28.86
2023-03-13T00:06:34.472Z,28.86
2023-03-13T00:09:01.809Z,28.87
2023-03-13T00:11:29.053Z,28.83
2023-03-13T00:13:56.330Z,28.84
2023-03-13T00:16:24.021Z,28.86
2023-03-13T00:18:51.326Z,28.84
2023-03-13T00:21:18.568Z,28.84
2023-03-13T00:23:45.937Z,28.86
2023-03-13T00:26:13.203Z,28.84
2023-03-13T00:28:40.488Z,28.84
2023-03-13T00:31:07.904Z,28.86
2023-03-13T00:33:35.625Z,28.81
2023-03-13T00:36:02.909Z,28.84
2023-03-13T00:38:30.352Z,28.83
2023-03-13T00:40:57.616Z,28.83
2023-03-13T00:43:24.876Z,28.84
2023-03-13T00:45:52.252Z,28.81
2023-03-13T00:48:19.537Z,28.83
2023-03-13T00:50:46.805Z,28.83
2023-03-13T00:53:14.089Z,28.84
2023-03-13T00:55:41.466Z,28.84
2023-03-13T00:58:08.732Z,28.84
2023-03-13T01:00:35.996Z,28.84
2023-03-13T01:03:03.499Z,28.86
2023-03-13T01:05:31.360Z,28.86
2023-03-13T01:07:58.618Z,28.86
2023-03-13T01:10:25.951Z,28.84
2023-03-13T01:12:53.202Z,28.86
2023-03-13T01:15:20.471Z,28.89
2023-03-13T01:17:47.822Z,28.89
2023-03-13T01:20:15.089Z,28.87
2023-03-13T01:22:42.361Z,28.90
2023-03-13T01:25:09.697Z,28.89
2023-03-13T01:27:36.987Z,28.90
2023-03-13T01:30:04.244Z,28.91
2023-03-13T01:32:31.686Z,28.93
2023-03-13T01:34:58.980Z,28.93
2023-03-13T01:37:26.251Z,28.94
2023-03-13T01:39:53.625Z,28.94
2023-03-13T01:42:23.864Z,28.94
2023-03-13T01:44:51.130Z,28.99
2023-03-13T01:47:18.523Z,28.97
2023-03-13T01:49:45.819Z,28.99
2023-03-13T01:52:13.102Z,29.00
2023-03-13T01:54:40.402Z,29.00
2023-03-13T01:57:07.689Z,29.03
2023-03-13T01:59:35.094Z,29.04
2023-03-13T02:02:03.943Z,29.06
2023-03-13T02:04:31.325Z,29.07
2023-03-13T02:06:58.608Z,29.07
2023-03-13T02:09:27.742Z,29.07
2023-03-13T02:11:55.026Z,29.08
2023-03-13T02:14:22.495Z,29.10
2023-03-13T02:16:50.017Z,29.08
2023-03-13T02:19:17.332Z,29.11
2023-03-13T02:21:44.648Z,29.11
2023-03-13T02:24:11.974Z,29.10
2023-03-13T02:26:39.258Z,29.13
2023-03-13T02:29:06.531Z,29.15
2023-03-13T02:31:33.943Z,29.15
2023-03-13T02:34:01.296Z,29.13
2023-03-13T02:36:28.563Z,29.17
2023-03-13T02:38:55.907Z,29.15
2023-03-13T02:41:23.180Z,29.15
2023-03-13T02:43:50.779Z,29.18
2023-03-13T02:46:18.263Z,29.17
2023-03-13T02:48:45.571Z,29.21
2023-03-13T02:51:12.851Z,29.20
2023-03-13T02:53:40.159Z,29.20
2023-03-13T02:56:07.475Z,29.21
2023-03-13T02:58:35.669Z,29.22
2023-03-13T03:01:06.134Z,29.27
2023-03-13T03:03:36.740Z,29.25
2023-03-13T03:06:04.072Z,29.25
2023-03-13T03:08:31.530Z,29.28
2023-03-13T03:10:58.810Z,29.28
2023-03-13T03:13:26.070Z,29.28
2023-03-13T03:15:58.830Z,29.32
2023-03-13T03:18:26.144Z,29.32
2023-03-13T03:20:53.416Z,29.37
2023-03-13T03:23:20.776Z,29.35
2023-03-13T03:25:48.050Z,29.38
2023-03-13T03:28:15.312Z,29.39
2023-03-13T03:30:42.647Z,29.41
2023-03-13T03:33:09.919Z,29.42
2023-03-13T03:35:37.248Z,29.42
2023-03-13T03:40:54.991Z,29.48
2023-03-13T03:43:22.251Z,29.48
2023-03-13T03:45:49.599Z,29.47
2023-03-13T03:48:16.953Z,29.50
2023-03-13T03:50:44.206Z,29.52
2023-03-13T03:53:11.475Z,29.54
2023-03-13T03:55:38.907Z,29.52
2023-03-13T03:58:06.170Z,29.57
2023-03-13T04:00:33.427Z,29.57
2023-03-13T04:03:00.867Z,29.58
2023-03-13T04:05:28.153Z,29.59
2023-03-13T04:07:55.404Z,29.59
2023-03-13T04:10:22.843Z,29.61
2023-03-13T04:12:50.108Z,29.64
2023-03-13T04:15:17.372Z,29.65
2023-03-13T04:17:44.698Z,29.66
2023-03-13T04:20:11.960Z,29.69
2023-03-13T04:22:42.287Z,29.69
2023-03-13T04:25:09.592Z,29.72
2023-03-13T04:27:36.849Z,29.72
2023-03-13T04:30:04.136Z,29.72
2023-03-13T04:32:31.904Z,29.76
2023-03-13T04:34:59.297Z,29.79
2023-03-13T04:37:26.575Z,29.81
2023-03-13T04:39:53.998Z,29.82
2023-03-13T04:42:21.260Z,29.86
2023-03-13T04:44:48.521Z,29.88
2023-03-13T04:47:15.846Z,29.89
2023-03-13T04:49:43.175Z,29.90
2023-03-13T04:52:10.438Z,29.95
2023-03-13T04:54:37.791Z,29.96
2023-03-13T04:57:05.061Z,29.98
2023-03-13T04:59:32.314Z,29.98
2023-03-13T05:01:59.771Z,30.02
2023-03-13T05:04:27.026Z,30.02
2023-03-13T05:06:54.296Z,30.05
2023-03-13T05:09:21.723Z,30.08
2023-03-13T05:11:51.094Z,30.10
2023-03-13T05:14:18.363Z,30.12
2023-03-13T05:16:45.703Z,30.13
2023-03-13T05:19:14.257Z,30.15
2023-03-13T05:21:41.545Z,30.17
2023-03-13T05:24:08.891Z,30.20
2023-03-13T05:26:36.187Z,30.22
2023-03-13T05:29:03.504Z,30.22
2023-03-13T05:31:32.852Z,30.22
2023-03-13T05:34:00.157Z,30.26
2023-03-13T05:36:27.445Z,30.27
2023-03-13T05:38:54.913Z,30.27
2023-03-13T05:41:22.197Z,30.29
2023-03-13T05:43:49.497Z,30.32
2023-03-13T05:46:16.933Z,30.32
2023-03-13T05:48:44.224Z,30.36
2023-03-13T05:51:11.489Z,30.36
2023-03-13T05:53:38.921Z,30.40
2023-03-13T05:56:06.190Z,30.41
2023-03-13T05:58:33.453Z,30.43
2023-03-13T06:01:00.768Z,30.43
2023-03-13T06:03:28.142Z,30.47
2023-03-13T06:05:55.493Z,30.47
2023-03-13T06:08:22.879Z,30.50
2023-03-13T06:10:50.164Z,30.50
2023-03-13T06:13:20.074Z,30.53
2023-03-13T06:15:47.693Z,30.57
2023-03-13T06:18:14.979Z,30.56
2023-03-13T06:20:42.668Z,30.56
2023-03-13T06:23:10.088Z,30.60
2023-03-13T06:25:37.372Z,30.63
2023-03-13T06:28:04.627Z,30.64
2023-03-13T06:30:32.036Z,30.66
2023-03-13T06:32:59.664Z,30.67
2023-03-13T06:35:27.384Z,30.70
2023-03-13T06:37:55.001Z,30.70
2023-03-13T06:40:22.295Z,30.70
2023-03-13T06:42:49.895Z,30.74
2023-03-13T06:45:17.342Z,30.76
2023-03-13T06:47:44.677Z,30.79
2023-03-13T06:50:11.994Z,30.77
2023-03-13T06:52:43.856Z,30.81
2023-03-13T06:55:11.700Z,30.80
2023-03-13T06:57:38.949Z,30.80
2023-03-13T07:00:06.368Z,30.80
2023-03-13T07:02:36.382Z,30.83
2023-03-13T07:05:03.663Z,30.84
2023-03-13T07:07:32.137Z,30.84
2023-03-13T07:09:59.572Z,30.86
2023-03-13T07:12:26.845Z,30.86
2023-03-13T07:14:54.341Z,30.87
2023-03-13T07:17:21.623Z,30.87
2023-03-13T07:19:48.897Z,30.86
2023-03-13T07:22:16.335Z,30.87
2023-03-13T07:24:43.617Z,30.84
2023-03-13T07:27:11.015Z,30.84
2023-03-13T07:29:38.408Z,30.80
2023-03-13T07:32:05.739Z,30.79
2023-03-13T07:34:42.267Z,30.76
2023-03-13T07:37:10.480Z,30.73
2023-03-13T07:39:37.779Z,30.70
2023-03-13T07:42:05.038Z,30.67
2023-03-13T07:44:32.476Z,30.61
2023-03-13T07:47:00.599Z,30.61
2023-03-13T07:49:27.951Z,30.57
2023-03-13T07:51:55.314Z,30.53
2023-03-13T07:54:22.602Z,30.50
2023-03-13T07:56:53.026Z,30.47
2023-03-13T07:59:20.463Z,30.44
2023-03-13T08:01:47.747Z,30.44
2023-03-13T08:04:15.066Z,30.41
2023-03-13T08:06:42.731Z,30.40
2023-03-13T08:09:10.054Z,30.39
2023-03-13T08:11:38.756Z,30.39
2023-03-13T08:14:06.221Z,30.39
2023-03-13T08:16:33.505Z,30.36
2023-03-13T08:19:05.250Z,30.36
2023-03-13T08:21:32.676Z,30.36
2023-03-13T08:23:59.944Z,30.36
2023-03-13T08:26:27.199Z,30.36
2023-03-13T08:28:54.555Z,30.36
2023-03-13T08:31:24.846Z,30.36
2023-03-13T08:33:52.119Z,30.37
2023-03-13T08:36:19.451Z,30.37
2023-03-13T08:38:46.865Z,30.36
2023-03-13T08:41:15.299Z,30.39
2023-03-13T08:43:42.888Z,30.39
2023-03-13T08:46:10.227Z,30.37
2023-03-13T08:48:37.578Z,30.40
2023-03-13T08:51:05.043Z,30.40
2023-03-13T08:53:32.307Z,30.40
2023-03-13T08:55:59.592Z,30.41
2023-03-13T08:58:27.013Z,30.41
2023-03-13T09:00:54.288Z,30.40
2023-03-13T09:03:21.621Z,30.43
2023-03-13T09:05:56.124Z,30.41
2023-03-13T09:08:25.672Z,30.41
2023-03-13T09:10:52.934Z,30.44
2023-03-13T09:13:20.228Z,30.44
2023-03-13T09:15:47.661Z,30.44
2023-03-13T09:18:15.036Z,30.44
2023-03-13T09:20:42.342Z,30.46
2023-03-13T09:23:09.691Z,30.46
2023-03-13T09:25:36.943Z,30.47
2023-03-13T09:28:04.211Z,30.47
2023-03-13T09:30:31.565Z,30.49
2023-03-13T09:32:59.498Z,30.49
2023-03-13T09:35:26.896Z,30.49
2023-03-13T09:37:54.226Z,30.52
2023-03-13T09:40:21.493Z,30.50
2023-03-13T09:42:48.758Z,30.50
2023-03-13T09:45:16.088Z,30.53
2023-03-13T09:47:43.365Z,30.55
2023-03-13T09:50:10.791Z,30.55
2023-03-13T09:52:38.140Z,30.55
2023-03-13T09:55:05.395Z,30.53
2023-03-13T09:57:32.677Z,30.55
2023-03-13T10:00:00.075Z,30.53
2023-03-13T10:02:34.167Z,30.55
2023-03-13T10:05:01.562Z,30.55
2023-03-13T10:07:28.858Z,30.55
2023-03-13T10:09:56.226Z,30.55
2023-03-13T10:12:23.622Z,30.52
2023-03-13T10:14:50.889Z,30.52
2023-03-13T10:17:18.244Z,30.55
2023-03-13T10:19:45.605Z,30.53
2023-03-13T10:22:12.853Z,30.52
2023-03-13T10:24:40.118Z,30.55
2023-03-13T10:27:07.512Z,30.53
2023-03-13T10:29:34.809Z,30.52
2023-03-13T10:32:02.073Z,30.52
2023-03-13T10:34:29.410Z,30.52
2023-03-13T10:36:56.676Z,30.52
2023-03-13T10:39:38.693Z,30.50
2023-03-13T10:42:06.041Z,30.50
2023-03-13T10:44:33.308Z,30.50
2023-03-13T10:47:00.606Z,30.52
2023-03-13T10:49:28.043Z,30.50
2023-03-13T10:51:55.316Z,30.47
2023-03-13T10:54:22.590Z,30.50
2023-03-13T10:56:49.938Z,30.49
2023-03-13T10:59:17.228Z,30.49
2023-03-13T11:01:44.497Z,30.46
2023-03-13T11:04:11.796Z,30.49
2023-03-13T11:06:39.075Z,30.46
2023-03-13T11:09:06.390Z,30.47
2023-03-13T11:11:33.754Z,30.46
2023-03-13T11:14:01.020Z,30.46
2023-03-13T11:16:31.177Z,30.44
2023-03-13T11:21:48.884Z,30.41
2023-03-13T11:24:16.160Z,30.41
2023-03-13T11:26:52.388Z,30.40
2023-03-13T11:29:29.963Z,30.40
2023-03-13T11:31:57.270Z,30.39
2023-03-13T11:34:24.584Z,30.37
2023-03-13T11:36:52.013Z,30.35
2023-03-13T11:39:19.330Z,30.39
2023-03-13T11:41:46.630Z,30.37
2023-03-13T11:44:13.999Z,30.37
2023-03-13T11:46:41.400Z,30.33
2023-03-13T11:49:08.734Z,30.32
2023-03-13T11:51:36.108Z,30.35
2023-03-13T11:54:05.133Z,30.32
2023-03-13T11:56:32.582Z,30.32
2023-03-13T11:59:04.121Z,30.29
2023-03-13T12:04:12.886Z,30.27
2023-03-13T12:06:40.164Z,30.27
2023-03-13T12:09:07.450Z,30.27
2023-03-13T12:11:34.836Z,30.25
2023-03-13T12:14:02.135Z,30.26
2023-03-13T12:16:29.427Z,30.25
2023-03-13T12:21:46.951Z,30.22
2023-03-13T12:24:14.323Z,30.22
2023-03-13T12:26:41.588Z,30.20
2023-03-13T12:29:08.987Z,30.17
2023-03-13T12:31:36.304Z,30.17
2023-03-13T12:34:03.641Z,30.16
2023-03-13T12:36:31.114Z,30.17
2023-03-13T12:38:58.587Z,30.16
2023-03-13T12:41:25.939Z,30.15
2023-03-13T12:44:07.144Z,30.15
2023-03-13T12:46:35.417Z,30.15
2023-03-13T12:49:02.877Z,30.12
2023-03-13T12:54:11.676Z,30.12
2023-03-13T12:56:39.028Z,30.08
2023-03-13T12:59:06.300Z,30.08
2023-03-13T13:01:33.812Z,30.09
2023-03-13T13:04:01.164Z,30.06
2023-03-13T13:06:28.434Z,30.09
2023-03-13T13:08:55.909Z,30.08
2023-03-13T13:11:24.424Z,30.06
2023-03-13T13:13:51.738Z,30.04
2023-03-13T13:16:19.262Z,30.05
2023-03-13T13:18:46.644Z,30.02
2023-03-13T13:21:13.910Z,30.02
2023-03-13T13:23:43.606Z,30.05
2023-03-13T13:26:10.875Z,29.99
2023-03-13T13:28:38.138Z,29.99
2023-03-13T13:31:05.677Z,29.98
2023-03-13T13:33:37.819Z,29.99
2023-03-13T13:36:05.220Z,29.98
2023-03-13T13:38:32.551Z,29.98
2023-03-13T13:40:59.813Z,29.96
2023-03-13T13:43:27.264Z,29.95
2023-03-13T13:45:54.536Z,29.95
2023-03-13T13:48:21.795Z,29.95
2023-03-13T13:50:49.191Z,29.93
2023-03-13T13:53:16.482Z,29.95
2023-03-13T13:55:43.736Z,29.90
2023-03-13T13:58:11.189Z,29.89
2023-03-13T14:00:38.549Z,29.89
2023-03-13T14:03:05.799Z,29.89
2023-03-13T14:05:33.205Z,29.88
2023-03-13T14:08:00.524Z,29.89
2023-03-13T14:10:27.847Z,29.85
2023-03-13T14:12:55.276Z,29.86
2023-03-13T14:15:22.585Z,29.85
2023-03-13T14:17:49.873Z,29.84
2023-03-13T14:20:17.216Z,29.84
2023-03-13T14:22:44.481Z,29.84
2023-03-13T14:25:11.796Z,29.84
2023-03-13T14:27:39.087Z,29.82
2023-03-13T14:30:06.367Z,29.82
2023-03-13T14:32:33.807Z,29.81
2023-03-13T14:35:01.110Z,29.79
2023-03-13T14:37:28.370Z,29.79
2023-03-13T14:39:55.765Z,29.82
2023-03-13T14:42:23.074Z,29.79
2023-03-13T14:44:50.532Z,29.78
2023-03-13T14:47:17.993Z,29.78
2023-03-13T14:49:45.250Z,29.78
2023-03-13T14:52:12.519Z,29.74
2023-03-13T14:54:39.869Z,29.75
2023-03-13T14:57:07.117Z,29.76
2023-03-13T14:59:34.364Z,29.74
2023-03-13T15:02:01.727Z,29.75
2023-03-13T15:04:29.088Z,29.71
2023-03-13T15:06:56.419Z,29.74
2023-03-13T15:09:28.556Z,29.72
2023-03-13T15:11:55.844Z,29.71
2023-03-13T15:14:23.255Z,29.72
2023-03-13T15:16:51.161Z,29.69
2023-03-13T15:19:18.692Z,29.68
2023-03-13T15:21:46.109Z,29.68
2023-03-13T15:24:13.367Z,29.68
2023-03-13T15:26:40.615Z,29.69
2023-03-13T15:29:07.958Z,29.69
2023-03-13T15:31:35.251Z,29.65
2023-03-13T15:34:02.699Z,29.64
2023-03-13T15:36:30.050Z,29.65
2023-03-13T15:38:57.320Z,29.65
2023-03-13T15:41:24.635Z,29.65
2023-03-13T15:43:52.012Z,29.62
2023-03-13T15:46:19.363Z,29.62
2023-03-13T15:48:46.746Z,29.64
2023-03-13T15:51:24.138Z,29.64
2023-03-13T15:53:54.402Z,29.59
2023-03-13T15:56:21.790Z,29.64
2023-03-13T15:58:49.056Z,29.62
2023-03-13T16:01:16.348Z,29.59
2023-03-13T16:03:43.689Z,29.59
2023-03-13T16:06:10.973Z,29.57
2023-03-13T16:08:38.240Z,29.58
2023-03-13T16:11:05.639Z,29.58
2023-03-13T16:13:32.901Z,29.55
2023-03-13T16:16:00.207Z,29.55
2023-03-13T16:18:27.530Z,29.54
2023-03-13T16:21:02.086Z,29.54
2023-03-13T16:23:29.494Z,29.54
2023-03-13T16:25:56.761Z,29.54
2023-03-13T16:28:24.021Z,29.51
2023-03-13T16:30:51.452Z,29.51
2023-03-13T16:33:18.771Z,29.52
2023-03-13T16:35:46.052Z,29.48
2023-03-13T16:38:13.437Z,29.48
2023-03-13T16:40:41.031Z,29.50
2023-03-13T16:43:08.314Z,29.52
2023-03-13T16:45:35.637Z,29.48
2023-03-13T16:48:02.903Z,29.47
2023-03-13T16:50:30.157Z,29.44
2023-03-13T16:52:57.490Z,29.45
2023-03-13T16:55:24.746Z,29.44
2023-03-13T16:57:52.023Z,29.42
2023-03-13T17:00:19.397Z,29.42
2023-03-13T17:02:46.721Z,29.42
2023-03-13T17:05:14.086Z,29.44
2023-03-13T17:07:41.445Z,29.41
2023-03-13T17:10:08.708Z,29.38
2023-03-13T17:12:36.045Z,29.41
2023-03-13T17:15:03.432Z,29.39
2023-03-13T17:17:30.731Z,29.38
2023-03-13T17:19:57.998Z,29.39
2023-03-13T17:22:25.348Z,29.37
2023-03-13T17:24:52.619Z,29.37
2023-03-13T17:27:19.908Z,29.35
2023-03-13T17:29:47.231Z,29.34
2023-03-13T17:32:14.500Z,29.35
2023-03-13T17:34:41.926Z,29.34
2023-03-13T17:37:09.417Z,29.34
2023-03-13T17:39:36.702Z,29.34
2023-03-13T17:42:04.037Z,29.32
2023-03-13T17:44:31.407Z,29.31
2023-03-13T17:46:58.759Z,29.32
2023-03-13T17:49:26.030Z,29.31
2023-03-13T17:51:53.442Z,29.31
2023-03-13T17:54:20.737Z,29.30
2023-03-13T17:56:47.996Z,29.31
2023-03-13T17:59:15.351Z,29.27
2023-03-13T18:01:42.685Z,29.30
2023-03-13T18:04:09.995Z,29.27
2023-03-13T18:06:40.154Z,29.28
2023-03-13T18:09:11.885Z,29.27
2023-03-13T18:11:39.221Z,29.30
2023-03-13T18:14:06.485Z,29.25
2023-03-13T18:16:34.024Z,29.24
2023-03-13T18:19:01.688Z,29.25
2023-03-13T18:21:32.496Z,29.25
2023-03-13T18:23:59.759Z,29.24
2023-03-13T18:26:27.104Z,29.22
2023-03-13T18:28:54.351Z,29.24
2023-03-13T18:31:21.643Z,29.22
2023-03-13T18:33:50.487Z,29.22
2023-03-13T18:36:17.749Z,29.21
2023-03-13T18:38:45.109Z,29.21
2023-03-13T18:41:12.371Z,29.20
2023-03-13T18:43:39.655Z,29.21
2023-03-13T18:46:07.211Z,29.20
2023-03-13T18:48:34.501Z,29.20
2023-03-13T18:51:01.772Z,29.17
2023-03-13T18:53:29.252Z,29.18
2023-03-13T18:55:56.487Z,29.20
2023-03-13T18:58:23.743Z,29.18
2023-03-13T19:00:51.094Z,29.15
2023-03-13T19:03:18.654Z,29.14
2023-03-13T19:05:45.912Z,29.15
2023-03-13T19:08:13.188Z,29.14
2023-03-13T19:10:40.612Z,29.17
2023-03-13T19:13:07.880Z,29.14
2023-03-13T19:15:35.157Z,29.15
2023-03-13T19:18:03.513Z,29.11
2023-03-13T19:20:31.452Z,29.13
2023-03-13T19:22:58.722Z,29.13
2023-03-13T19:25:26.199Z,29.11
2023-03-13T19:27:53.497Z,29.10
2023-03-13T19:30:20.782Z,29.11
2023-03-13T19:32:57.714Z,29.08
2023-03-13T19:35:25.084Z,29.08
2023-03-13T19:37:52.432Z,29.10
2023-03-13T19:40:19.823Z,29.10
2023-03-13T19:42:50.980Z,29.08
2023-03-13T19:45:18.236Z,29.08
2023-03-13T19:47:45.575Z,29.07
2023-03-13T19:50:12.852Z,29.08
2023-03-13T19:52:40.129Z,29.06
2023-03-13T19:55:07.529Z,29.06
2023-03-13T19:57:34.784Z,29.06
2023-03-13T20:00:09.217Z,29.07
2023-03-13T20:02:36.598Z,29.04
2023-03-13T20:05:03.968Z,29.03
2023-03-13T20:07:31.224Z,29.01
2023-03-13T20:09:58.504Z,29.04
2023-03-13T20:12:34.821Z,29.03
2023-03-13T20:15:02.102Z,29.04
2023-03-13T20:17:29.437Z,29.01
2023-03-13T20:19:56.745Z,29.01
2023-03-13T20:22:24.011Z,29.01
2023-03-13T20:25:04.199Z,29.01
2023-03-13T20:27:31.519Z,29.00
2023-03-13T20:29:59.581Z,28.99
2023-03-13T20:32:27.007Z,28.99
2023-03-13T20:34:54.269Z,28.99
2023-03-13T20:37:21.522Z,28.97
2023-03-13T20:39:50.004Z,28.99
2023-03-13T20:42:17.267Z,28.96
2023-03-13T20:44:44.574Z,28.94
2023-03-13T20:47:12.159Z,28.99
2023-03-13T20:49:39.510Z,28.96
2023-03-13T20:52:07.163Z,28.96
2023-03-13T20:54:34.537Z,28.96
2023-03-13T20:57:01.972Z,28.94
2023-03-13T20:59:29.249Z,28.94
2023-03-13T21:01:56.606Z,28.94
2023-03-13T21:04:24.075Z,28.93
2023-03-13T21:06:51.377Z,28.94
2023-03-13T21:09:18.645Z,28.96
2023-03-13T21:11:45.993Z,28.93
2023-03-13T21:14:13.263Z,28.93
2023-03-13T21:16:40.596Z,28.90
2023-03-13T21:19:10.914Z,28.91
2023-03-13T21:21:38.178Z,28.90
2023-03-13T21:24:05.452Z,28.90
2023-03-13T21:26:32.923Z,28.90
2023-03-13T21:29:04.957Z,28.90
2023-03-13T21:31:32.567Z,28.91
2023-03-13T21:33:59.828Z,28.90
2023-03-13T21:36:27.098Z,28.90
2023-03-13T21:38:54.417Z,28.89
2023-03-13T21:41:21.706Z,28.89
2023-03-13T21:43:49.058Z,28.86
2023-03-13T21:46:16.492Z,28.89
2023-03-13T21:51:15.850Z,28.89
2023-03-13T21:53:43.121Z,28.87
2023-03-13T21:56:10.451Z,28.87
2023-03-13T21:58:37.697Z,28.86
2023-03-13T22:01:04.984Z,28.87
2023-03-13T22:03:32.506Z,28.86
2023-03-13T22:05:59.965Z,28.87
2023-03-13T22:08:27.226Z,28.84
2023-03-13T22:10:54.581Z,28.84
2023-03-13T22:13:21.823Z,28.84
2023-03-13T22:15:49.075Z,28.84
2023-03-13T22:18:16.429Z,28.81
2023-03-13T22:20:43.784Z,28.81
2023-03-13T22:23:11.045Z,28.83
2023-03-13T22:25:38.472Z,28.84
2023-03-13T22:28:05.764Z,28.81
2023-03-13T22:30:33.597Z,28.83
2023-03-13T22:33:00.995Z,28.81
2023-03-13T22:35:28.295Z,28.80
2023-03-13T22:37:55.590Z,28.79
2023-03-13T22:40:23.034Z,28.79
2023-03-13T22:42:50.300Z,28.81
2023-03-13T22:45:17.559Z,28.79
2023-03-13T22:47:45.226Z,28.77
2023-03-13T22:50:12.566Z,28.77
2023-03-13T22:52:39.907Z,28.77
2023-03-13T22:55:08.000Z,28.79
2023-03-13T22:57:35.256Z,28.79
2023-03-13T23:00:05.489Z,28.77
2023-03-13T23:02:32.922Z,28.74
2023-03-13T23:05:00.207Z,28.74
2023-03-13T23:07:27.555Z,28.76
2023-03-13T23:09:54.829Z,28.76
2023-03-13T23:12:22.097Z,28.76
2023-03-13T23:14:49.378Z,28.73
2023-03-13T23:17:16.776Z,28.74
2023-03-13T23:19:44.111Z,28.74
2023-03-13T23:22:11.400Z,28.74
2023-03-13T23:24:38.663Z,28.74
2023-03-13T23:27:06.921Z,28.74
2023-03-13T23:29:34.182Z,28.73
2023-03-13T23:32:01.460Z,28.73
2023-03-13T23:34:28.783Z,28.74
2023-03-13T23:37:01.374Z,28.74
2023-03-13T23:39:28.692Z,28.73
2023-03-13T23:41:56.162Z,28.73
2023-03-13T23:44:23.457Z,28.71
2023-03-13T23:46:50.943Z,28.73
2023-03-13T23:49:18.196Z,28.70
2023-03-13T23:51:45.634Z,28.71
2023-03-13T23:54:22.753Z,28.71
2023-03-13T23:56:50.072Z,28.71
2023-03-13T23:59:17.433Z,28.71
